createdAt,value
2017-09-18T00:00:54.915Z,11.60
2017-09-18T00:03:22.395Z,11.50
2017-09-18T00:05:50.682Z,11.40
2017-09-18T00:08:18.173Z,11.40
2017-09-18T00:10:45.674Z,11.50
2017-09-18T00:13:13.934Z,11.60
2017-09-18T00:15:41.401Z,11.60
2017-09-18T00:18:09.642Z,11.50
2017-09-18T00:20:37.303Z,11.50
2017-09-18T00:23:04.786Z,11.40
2017-09-18T00:25:32.326Z,11.30
2017-09-18T00:27:59.804Z,11.20
2017-09-18T00:30:28.079Z,11.20
2017-09-18T00:32:56.343Z,11.20
2017-09-18T00:35:23.823Z,11.10
2017-09-18T00:37:52.071Z,11.20
2017-09-18T00:40:19.568Z,11.10
2017-09-18T00:42:47.804Z,11.00
2017-09-18T00:45:15.291Z,11.00
2017-09-18T00:47:43.543Z,11.00
2017-09-18T00:50:11.022Z,11.00
2017-09-18T00:52:39.291Z,10.90
2017-09-18T00:55:07.533Z,10.90
2017-09-18T00:57:35.040Z,10.90
2017-09-18T01:00:02.528Z,11.00
2017-09-18T01:02:30.009Z,11.00
2017-09-18T01:04:57.666Z,11.00
2017-09-18T01:07:25.147Z,11.10
2017-09-18T01:09:52.627Z,11.20
2017-09-18T01:12:20.113Z,11.30
2017-09-18T01:14:47.623Z,11.30
2017-09-18T01:17:15.889Z,11.10
2017-09-18T01:19:43.373Z,11.10
2017-09-18T01:22:11.722Z,11.10
2017-09-18T01:24:39.187Z,11.00
2017-09-18T01:27:07.457Z,11.00
2017-09-18T01:29:35.707Z,11.00
2017-09-18T01:32:03.337Z,11.00
2017-09-18T01:34:30.841Z,11.00
2017-09-18T01:36:58.327Z,11.00
2017-09-18T01:39:26.692Z,11.00
2017-09-18T01:41:54.950Z,11.10
2017-09-18T01:44:22.433Z,11.10
2017-09-18T01:46:50.682Z,11.30
2017-09-18T01:49:18.166Z,11.20
2017-09-18T01:51:45.675Z,11.40
2017-09-18T01:54:13.144Z,11.30
2017-09-18T01:56:40.644Z,11.30
2017-09-18T01:59:09.113Z,11.30
2017-09-18T02:01:37.513Z,11.20
2017-09-18T02:04:05.041Z,11.20
2017-09-18T02:06:33.299Z,11.20
2017-09-18T02:09:00.781Z,11.20
2017-09-18T02:11:29.014Z,11.20
2017-09-18T02:13:56.503Z,11.30
2017-09-18T02:16:23.966Z,11.30
2017-09-18T02:18:52.216Z,11.40
2017-09-18T02:21:19.847Z,11.40
2017-09-18T02:23:47.352Z,11.40
2017-09-18T02:26:14.863Z,11.40
2017-09-18T02:28:42.360Z,11.50
2017-09-18T02:31:09.830Z,11.60
2017-09-18T02:33:38.067Z,11.50
2017-09-18T02:36:05.564Z,11.50
2017-09-18T02:38:33.833Z,11.50
2017-09-18T02:41:01.310Z,11.50
2017-09-18T02:43:29.562Z,11.40
2017-09-18T02:45:57.026Z,11.40
2017-09-18T02:48:25.269Z,11.40
2017-09-18T02:50:52.776Z,11.40
2017-09-18T02:53:21.039Z,11.30
2017-09-18T02:55:49.286Z,11.30
2017-09-18T02:58:16.772Z,11.20
2017-09-18T03:00:45.058Z,11.20
2017-09-18T03:03:13.317Z,11.20
2017-09-18T03:05:40.770Z,11.20
2017-09-18T03:08:09.047Z,11.20
2017-09-18T03:10:36.544Z,11.20
2017-09-18T03:13:04.024Z,11.20
2017-09-18T03:15:31.494Z,11.10
2017-09-18T03:17:58.973Z,11.10
2017-09-18T03:20:26.442Z,11.10
2017-09-18T03:22:54.701Z,11.00
2017-09-18T03:25:22.165Z,11.00
2017-09-18T03:27:51.062Z,11.10
2017-09-18T03:30:19.330Z,11.10
2017-09-18T03:32:47.594Z,11.10
2017-09-18T03:35:15.070Z,11.10
2017-09-18T03:37:43.397Z,11.10
2017-09-18T03:40:10.871Z,11.10
2017-09-18T03:42:38.360Z,11.10
2017-09-18T03:45:06.657Z,11.20
2017-09-18T03:47:34.910Z,11.20
2017-09-18T03:50:03.600Z,11.20
2017-09-18T03:52:31.857Z,11.20
2017-09-18T03:54:59.509Z,11.10
2017-09-18T03:57:26.992Z,11.10
2017-09-18T03:59:55.742Z,11.10
2017-09-18T04:02:23.327Z,11.10
2017-09-18T04:04:50.790Z,11.10
2017-09-18T04:07:19.056Z,11.10
2017-09-18T04:09:46.531Z,11.10
2017-09-18T04:12:14.776Z,11.00
2017-09-18T04:14:42.759Z,11.00
2017-09-18T04:17:10.221Z,11.00
2017-09-18T04:19:38.449Z,11.10
2017-09-18T04:22:05.938Z,11.10
2017-09-18T04:24:33.413Z,11.10
2017-09-18T04:27:01.662Z,11.10
2017-09-18T04:29:29.194Z,11.10
2017-09-18T04:31:56.665Z,11.10
2017-09-18T04:34:24.200Z,11.20
2017-09-18T04:36:51.771Z,11.20
2017-09-18T04:39:19.273Z,11.20
2017-09-18T04:41:47.652Z,11.10
2017-09-18T04:44:15.133Z,11.10
2017-09-18T04:46:43.341Z,11.10
2017-09-18T04:49:10.805Z,11.10
2017-09-18T04:51:38.299Z,11.10
2017-09-18T04:54:06.541Z,11.10
2017-09-18T04:56:34.074Z,11.10
2017-09-18T04:59:01.590Z,11.10
2017-09-18T05:01:29.905Z,11.10
2017-09-18T05:03:57.397Z,11.10
2017-09-18T05:06:24.865Z,11.20
2017-09-18T05:08:52.330Z,11.30
2017-09-18T05:11:20.616Z,11.40
2017-09-18T05:13:48.894Z,11.30
2017-09-18T05:16:17.135Z,11.30
2017-09-18T05:18:44.590Z,11.30
2017-09-18T05:21:12.061Z,11.30
2017-09-18T05:23:39.536Z,11.30
2017-09-18T05:26:07.865Z,11.20
2017-09-18T05:28:35.439Z,11.20
2017-09-18T05:31:02.923Z,11.20
2017-09-18T05:33:31.176Z,11.10
2017-09-18T05:35:58.642Z,11.10
2017-09-18T05:38:26.274Z,11.20
2017-09-18T05:40:53.738Z,11.20
2017-09-18T05:43:21.213Z,11.20
2017-09-18T05:45:48.696Z,11.20
2017-09-18T05:48:16.933Z,11.30
2017-09-18T05:50:44.413Z,11.20
2017-09-18T05:53:11.882Z,11.30
2017-09-18T05:55:40.116Z,11.20
2017-09-18T05:58:07.617Z,11.20
2017-09-18T06:00:36.861Z,11.40
2017-09-18T06:03:04.337Z,11.40
2017-09-18T06:05:31.845Z,11.40
2017-09-18T06:08:00.093Z,11.50
2017-09-18T06:10:27.565Z,11.50
2017-09-18T06:12:55.809Z,11.50
2017-09-18T06:15:23.386Z,11.50
2017-09-18T06:17:52.098Z,11.40
2017-09-18T06:20:19.681Z,11.30
2017-09-18T06:22:47.202Z,11.30
2017-09-18T06:25:15.445Z,11.30
2017-09-18T06:27:42.937Z,11.20
2017-09-18T06:30:11.185Z,11.20
2017-09-18T06:32:38.648Z,11.10
2017-09-18T06:35:06.944Z,11.20
2017-09-18T06:37:35.188Z,11.30
2017-09-18T06:40:02.658Z,11.30
2017-09-18T06:42:30.137Z,11.30
2017-09-18T06:44:58.357Z,11.40
2017-09-18T06:47:25.836Z,11.40
2017-09-18T06:49:54.077Z,11.50
2017-09-18T06:52:21.669Z,11.50
2017-09-18T06:54:49.137Z,11.50
2017-09-18T06:57:16.795Z,11.60
2017-09-18T06:59:44.265Z,11.70
2017-09-18T07:02:12.525Z,11.80
2017-09-18T07:04:40.006Z,11.80
2017-09-18T07:07:08.277Z,11.90
2017-09-18T07:09:36.510Z,12.10
2017-09-18T07:12:03.985Z,12.00
2017-09-18T07:14:31.476Z,12.10
2017-09-18T07:16:59.714Z,12.30
2017-09-18T07:19:27.190Z,12.30
